createdAt,value
2022-12-01T00:00:07.160Z,50.80
2022-12-01T00:01:40.259Z,55.70
2022-12-01T00:03:19.750Z,50.90
2022-12-01T00:04:51.639Z,53.60
2022-12-01T00:06:23.537Z,51.60
2022-12-01T00:07:55.571Z,57.40
2022-12-01T00:09:46.114Z,55.20
2022-12-01T00:11:18.079Z,59.20
2022-12-01T00:12:49.886Z,62.90
2022-12-01T00:14:21.888Z,54.20
2022-12-01T00:15:53.647Z,57.90
2022-12-01T00:17:25.366Z,57.80
2022-12-01T00:19:00.780Z,53.50
2022-12-01T00:20:35.870Z,56.30
2022-12-01T00:22:08.175Z,51.00
2022-12-01T00:23:43.851Z,55.80
2022-12-01T00:25:18.725Z,62.20
2022-12-01T00:26:50.511Z,55.60
2022-12-01T00:28:22.301Z,58.40
2022-12-01T00:29:55.396Z,57.70
2022-12-01T00:31:28.029Z,62.80
2022-12-01T00:32:59.841Z,64.20
2022-12-01T00:34:31.644Z,63.80
2022-12-01T00:36:04.498Z,63.00
2022-12-01T00:39:21.405Z,62.30
2022-12-01T00:40:53.486Z,65.30
2022-12-01T00:42:26.917Z,64.40
2022-12-01T00:43:58.647Z,61.30
2022-12-01T00:45:30.555Z,62.40
2022-12-01T00:47:02.687Z,62.60
2022-12-01T00:48:37.204Z,68.70
2022-12-01T00:50:09.606Z,66.80
2022-12-01T00:51:41.639Z,72.40
2022-12-01T00:53:13.754Z,66.50
2022-12-01T00:54:46.633Z,71.30
2022-12-01T00:56:18.692Z,63.20
2022-12-01T00:57:50.891Z,71.50
2022-12-01T00:59:22.741Z,66.80
2022-12-01T01:01:04.177Z,48.80
2022-12-01T01:02:40.870Z,63.70
2022-12-01T01:04:12.823Z,63.20
2022-12-01T01:05:44.599Z,68.80
2022-12-01T01:09:15.464Z,67.10
2022-12-01T01:10:48.929Z,70.40
2022-12-01T01:12:21.287Z,66.10
2022-12-01T01:13:53.674Z,59.40
2022-12-01T01:15:25.744Z,67.90
2022-12-01T01:16:57.821Z,61.80
2022-12-01T01:18:30.271Z,60.20
2022-12-01T01:20:02.092Z,63.40
2022-12-01T01:21:34.023Z,62.60
2022-12-01T01:23:05.960Z,63.60
2022-12-01T01:24:38.437Z,61.70
2022-12-01T01:26:28.241Z,54.30
2022-12-01T01:28:00.426Z,53.30
2022-12-01T01:29:33.271Z,65.40
2022-12-01T01:31:11.962Z,66.00
2022-12-01T01:32:43.993Z,63.60
2022-12-01T01:34:16.122Z,60.90
2022-12-01T01:35:49.289Z,64.00
2022-12-01T01:37:21.099Z,68.60
2022-12-01T01:38:54.557Z,66.80
2022-12-01T01:40:26.402Z,65.90
2022-12-01T01:41:58.279Z,68.60
2022-12-01T01:43:43.512Z,68.30
2022-12-01T01:45:29.662Z,66.40
2022-12-01T01:47:01.473Z,69.20
2022-12-01T01:48:37.584Z,62.00
2022-12-01T01:50:14.855Z,66.10
2022-12-01T01:51:53.615Z,68.60
2022-12-01T01:53:25.709Z,59.70
2022-12-01T01:54:58.428Z,62.00
2022-12-01T01:56:31.450Z,61.10
2022-12-01T01:58:09.413Z,58.10
2022-12-01T01:59:49.273Z,53.90
2022-12-01T02:01:22.500Z,63.80
2022-12-01T02:02:57.211Z,48.40
2022-12-01T02:04:30.243Z,46.40
2022-12-01T02:06:05.130Z,49.90
2022-12-01T02:07:41.573Z,49.40
2022-12-01T02:09:13.629Z,49.70
2022-12-01T02:11:11.642Z,52.30
2022-12-01T02:13:32.532Z,47.50
2022-12-01T02:15:25.430Z,52.70
2022-12-01T02:17:22.514Z,44.70
2022-12-01T02:19:18.560Z,43.30
2022-12-01T02:21:23.978Z,43.50
2022-12-01T02:23:20.740Z,44.20
2022-12-01T02:25:43.860Z,42.50
2022-12-01T02:27:47.835Z,48.10
2022-12-01T02:29:56.766Z,44.60
2022-12-01T02:32:04.136Z,45.20
2022-12-01T02:33:48.445Z,44.40
2022-12-01T02:35:59.337Z,42.60
2022-12-01T02:37:57.320Z,43.50
2022-12-01T02:39:52.312Z,46.60
2022-12-01T02:41:56.911Z,42.20
2022-12-01T02:44:01.825Z,43.70
2022-12-01T02:45:49.760Z,45.70
2022-12-01T02:47:21.907Z,41.70
2022-12-01T02:49:02.099Z,44.60
2022-12-01T02:50:36.598Z,46.90
2022-12-01T02:52:11.389Z,43.00
2022-12-01T02:53:44.401Z,39.10
2022-12-01T02:55:16.350Z,46.20
2022-12-01T02:56:53.656Z,40.80
2022-12-01T02:58:25.468Z,47.50
2022-12-01T02:59:58.489Z,41.70
2022-12-01T03:02:12.890Z,42.40
2022-12-01T03:04:13.400Z,41.50
2022-12-01T03:06:21.613Z,41.20
2022-12-01T03:08:21.564Z,42.90
2022-12-01T03:10:05.342Z,44.30
2022-12-01T03:12:15.462Z,41.40
2022-12-01T03:14:08.676Z,39.40
2022-12-01T03:16:13.988Z,38.60
2022-12-01T03:18:15.079Z,38.90
2022-12-01T03:20:36.946Z,37.80
2022-12-01T03:22:22.967Z,35.50
2022-12-01T03:24:09.645Z,34.20
2022-12-01T03:25:46.661Z,39.00
2022-12-01T03:27:25.830Z,35.10
2022-12-01T03:29:13.045Z,33.00
2022-12-01T03:30:46.848Z,37.00
2022-12-01T03:32:34.057Z,38.60
2022-12-01T03:34:14.211Z,34.30
2022-12-01T03:36:15.273Z,38.20
2022-12-01T03:37:57.766Z,35.30
2022-12-01T03:39:34.526Z,37.60
2022-12-01T03:41:15.405Z,31.40
2022-12-01T03:42:59.737Z,41.30
2022-12-01T03:44:45.128Z,32.40
2022-12-01T03:46:44.809Z,37.50
2022-12-01T03:48:18.747Z,34.40
2022-12-01T03:49:54.172Z,33.50
2022-12-01T03:51:47.069Z,28.50
2022-12-01T03:53:29.202Z,32.50
2022-12-01T03:55:29.515Z,34.60
2022-12-01T03:57:10.677Z,32.80
2022-12-01T03:58:49.498Z,33.90
2022-12-01T04:00:22.941Z,33.40
2022-12-01T04:01:55.147Z,36.60
2022-12-01T04:03:27.149Z,35.90
2022-12-01T04:04:59.331Z,33.60
2022-12-01T04:06:31.144Z,35.60
2022-12-01T04:08:03.080Z,32.30
2022-12-01T04:09:34.925Z,33.00
2022-12-01T04:11:32.407Z,36.10
2022-12-01T04:13:05.661Z,36.40
2022-12-01T04:14:37.421Z,35.10
2022-12-01T04:16:09.250Z,37.40
2022-12-01T04:17:46.272Z,33.00
2022-12-01T04:19:18.120Z,40.30
2022-12-01T04:20:51.077Z,35.70
2022-12-01T04:22:24.293Z,37.60
2022-12-01T04:24:03.441Z,38.20
2022-12-01T04:25:35.818Z,38.40
2022-12-01T04:27:07.651Z,38.50
2022-12-01T04:28:39.498Z,37.10
2022-12-01T04:30:12.691Z,38.90
2022-12-01T04:31:44.530Z,35.20
2022-12-01T04:33:16.562Z,35.90
2022-12-01T04:34:48.423Z,25.60
2022-12-01T04:36:24.464Z,33.80
2022-12-01T04:37:57.755Z,35.10
2022-12-01T04:39:29.610Z,34.50
2022-12-01T04:41:01.401Z,35.30
2022-12-01T04:42:33.238Z,32.40
2022-12-01T04:44:07.979Z,32.60
2022-12-01T04:45:39.982Z,32.70
2022-12-01T04:47:11.955Z,32.20
2022-12-01T04:48:43.742Z,35.20
2022-12-01T04:50:17.057Z,35.20
2022-12-01T04:51:49.471Z,33.10
2022-12-01T04:53:22.587Z,30.30
2022-12-01T04:54:54.622Z,32.60
2022-12-01T04:56:26.410Z,31.60
2022-12-01T04:58:01.344Z,28.30
2022-12-01T04:59:33.420Z,27.80
2022-12-01T05:01:11.955Z,34.00
2022-12-01T05:02:44.600Z,33.40
2022-12-01T05:04:16.403Z,35.20
2022-12-01T05:05:48.239Z,30.70
2022-12-01T05:07:20.092Z,33.30
2022-12-01T05:09:00.352Z,32.90
2022-12-01T05:10:37.006Z,33.50
2022-12-01T05:12:09.001Z,34.40
2022-12-01T05:13:46.651Z,36.40
2022-12-01T05:15:20.034Z,36.70
2022-12-01T05:16:51.948Z,35.80
2022-12-01T05:18:23.891Z,34.00
2022-12-01T05:20:14.299Z,34.40
2022-12-01T05:21:49.558Z,37.10
2022-12-01T05:23:21.465Z,38.20
2022-12-01T05:24:53.293Z,35.60
2022-12-01T05:26:25.594Z,35.20
2022-12-01T05:27:57.865Z,34.90
2022-12-01T05:29:29.901Z,39.50
2022-12-01T05:31:02.486Z,36.50
2022-12-01T05:32:34.324Z,36.50
2022-12-01T05:34:08.686Z,35.50
2022-12-01T05:35:40.822Z,40.40
2022-12-01T05:37:12.668Z,42.30
2022-12-01T05:38:44.583Z,39.70
2022-12-01T05:40:16.470Z,27.80
2022-12-01T05:41:49.718Z,40.10
2022-12-01T05:43:28.764Z,42.70
2022-12-01T05:45:02.980Z,43.80
2022-12-01T05:46:34.736Z,41.70
2022-12-01T05:48:07.175Z,41.40
2022-12-01T05:49:38.886Z,42.50
2022-12-01T05:51:13.790Z,40.60
2022-12-01T05:52:45.646Z,39.40
2022-12-01T05:54:17.406Z,39.20
2022-12-01T05:55:55.007Z,41.10
2022-12-01T05:57:27.056Z,45.60
2022-12-01T05:59:02.229Z,40.90
2022-12-01T06:00:35.223Z,47.20
2022-12-01T06:02:08.051Z,51.50
2022-12-01T06:03:39.936Z,46.50
2022-12-01T06:05:12.217Z,51.00
2022-12-01T06:06:44.029Z,48.80
2022-12-01T06:08:16.263Z,50.40
2022-12-01T06:09:48.444Z,48.50
2022-12-01T06:11:21.864Z,49.10
2022-12-01T06:12:54.203Z,55.70
2022-12-01T06:14:26.385Z,47.80
2022-12-01T06:16:21.255Z,52.20
2022-12-01T06:18:02.966Z,51.40
2022-12-01T06:19:34.745Z,63.70
2022-12-01T06:21:07.453Z,62.60
2022-12-01T06:22:39.590Z,60.00
2022-12-01T06:24:11.762Z,65.70
2022-12-01T06:25:43.981Z,66.70
2022-12-01T06:27:15.846Z,67.50
2022-12-01T06:28:47.661Z,69.90
2022-12-01T06:30:24.161Z,68.70
2022-12-01T06:31:57.382Z,68.30
2022-12-01T06:33:29.383Z,63.50
2022-12-01T06:35:01.376Z,66.40
2022-12-01T06:36:34.302Z,67.30
2022-12-01T06:38:13.489Z,59.40
2022-12-01T06:39:45.280Z,59.50
2022-12-01T06:41:17.336Z,60.50
2022-12-01T06:42:49.883Z,59.40
2022-12-01T06:44:21.799Z,58.50
2022-12-01T06:45:59.439Z,61.10
2022-12-01T06:47:33.380Z,64.60
2022-12-01T06:49:08.456Z,58.50
2022-12-01T06:50:40.487Z,57.60
2022-12-01T06:52:12.272Z,62.40
2022-12-01T06:53:44.952Z,59.60
2022-12-01T06:55:17.467Z,53.20
2022-12-01T06:56:49.400Z,55.90
2022-12-01T06:58:22.871Z,54.90
2022-12-01T06:59:55.833Z,50.90
2022-12-01T07:01:28.615Z,52.80
2022-12-01T07:03:00.527Z,52.70
2022-12-01T07:04:32.316Z,53.50
2022-12-01T07:06:04.713Z,47.10
2022-12-01T07:07:40.320Z,56.90
2022-12-01T07:09:12.448Z,50.10
2022-12-01T07:10:44.211Z,48.20
2022-12-01T07:12:16.156Z,50.90
2022-12-01T07:13:50.779Z,47.20
2022-12-01T07:15:27.677Z,49.90
2022-12-01T07:17:01.798Z,54.00
2022-12-01T07:18:35.555Z,51.70
2022-12-01T07:20:13.694Z,52.30
2022-12-01T07:21:47.006Z,56.30
2022-12-01T07:23:18.873Z,53.30
2022-12-01T07:24:50.666Z,46.00
2022-12-01T07:26:22.707Z,47.60
2022-12-01T07:27:54.538Z,52.60
2022-12-01T07:29:26.411Z,53.80
2022-12-01T07:31:07.726Z,55.10
2022-12-01T07:32:40.500Z,51.60
2022-12-01T07:34:15.966Z,53.50
2022-12-01T07:35:47.821Z,50.70
2022-12-01T07:37:19.594Z,49.10
2022-12-01T07:38:51.823Z,55.10
2022-12-01T07:40:23.997Z,51.20
2022-12-01T07:41:56.189Z,52.40
2022-12-01T07:43:29.336Z,59.50
2022-12-01T07:45:01.557Z,52.00
2022-12-01T07:46:33.512Z,56.40
2022-12-01T07:48:05.841Z,56.80
2022-12-01T07:49:38.059Z,52.60
2022-12-01T07:51:16.186Z,62.50
2022-12-01T07:52:51.653Z,58.50
2022-12-01T07:54:25.506Z,57.20
2022-12-01T07:56:02.073Z,60.30
2022-12-01T07:57:37.458Z,57.50
2022-12-01T07:59:09.655Z,67.60
2022-12-01T08:00:41.575Z,63.20
2022-12-01T08:02:15.504Z,57.50
2022-12-01T08:03:56.577Z,58.80
2022-12-01T08:05:28.502Z,58.90
2022-12-01T08:07:00.403Z,60.80
2022-12-01T08:08:35.636Z,61.60
2022-12-01T08:10:08.188Z,58.80
2022-12-01T08:11:40.333Z,59.50
2022-12-01T08:13:17.177Z,56.00
2022-12-01T08:14:49.394Z,62.10
2022-12-01T08:16:23.785Z,60.30
2022-12-01T08:17:55.667Z,58.50
2022-12-01T08:19:29.491Z,52.30
2022-12-01T08:21:01.909Z,51.20
2022-12-01T08:22:35.852Z,54.00
2022-12-01T08:24:08.234Z,53.50
2022-12-01T08:25:40.119Z,49.70
2022-12-01T08:27:11.968Z,45.80
2022-12-01T08:28:45.301Z,44.60
2022-12-01T08:30:17.266Z,41.30
2022-12-01T08:31:49.159Z,45.90
2022-12-01T08:33:21.280Z,46.70
2022-12-01T08:34:53.719Z,42.00
2022-12-01T08:36:26.461Z,39.90
2022-12-01T08:37:58.996Z,41.60
2022-12-01T08:39:30.789Z,42.00
2022-12-01T08:41:07.362Z,45.10
2022-12-01T08:42:39.155Z,41.50
2022-12-01T08:44:11.323Z,44.60
2022-12-01T08:45:43.162Z,45.10
2022-12-01T08:47:18.753Z,44.30
2022-12-01T08:48:53.574Z,46.00
2022-12-01T08:50:48.338Z,43.90
2022-12-01T08:52:20.499Z,44.90
2022-12-01T08:53:52.352Z,44.20
2022-12-01T08:55:29.530Z,42.10
2022-12-01T08:57:01.493Z,41.20
2022-12-01T08:58:35.384Z,46.10
2022-12-01T09:00:10.323Z,41.80
2022-12-01T09:01:54.273Z,39.40
2022-12-01T09:03:29.080Z,39.30
2022-12-01T09:05:00.874Z,37.40
2022-12-01T09:06:40.159Z,37.20
2022-12-01T09:08:41.374Z,36.40
2022-12-01T09:10:14.148Z,37.60
2022-12-01T09:11:48.275Z,30.60
2022-12-01T09:13:22.830Z,31.20
2022-12-01T09:14:54.726Z,37.40
2022-12-01T09:16:26.709Z,30.20
2022-12-01T09:17:58.544Z,32.90
2022-12-01T09:19:30.683Z,32.60
2022-12-01T09:21:26.115Z,33.30
2022-12-01T09:22:57.894Z,26.90
2022-12-01T09:24:29.730Z,28.10
2022-12-01T09:26:02.723Z,27.70
2022-12-01T09:27:34.537Z,29.40
2022-12-01T09:29:10.675Z,28.00
2022-12-01T09:30:42.676Z,27.50
2022-12-01T09:32:14.593Z,32.00
2022-12-01T09:33:48.021Z,33.10
2022-12-01T09:35:23.436Z,29.40
2022-12-01T09:36:58.510Z,31.60
2022-12-01T09:38:33.321Z,31.70
2022-12-01T09:40:07.555Z,27.90
2022-12-01T09:41:54.642Z,33.00
2022-12-01T09:43:41.527Z,33.80
2022-12-01T09:45:31.893Z,30.50
2022-12-01T09:47:13.878Z,33.90
2022-12-01T09:48:50.380Z,33.00
2022-12-01T09:50:25.512Z,33.30
2022-12-01T09:52:00.441Z,29.40
2022-12-01T09:53:32.198Z,31.30
2022-12-01T09:55:12.397Z,32.30
2022-12-01T09:56:53.031Z,32.70
2022-12-01T09:58:33.762Z,27.90
2022-12-01T10:00:20.143Z,28.80
2022-12-01T10:02:01.311Z,31.20
2022-12-01T10:03:50.717Z,32.80
2022-12-01T10:05:29.853Z,29.50
2022-12-01T10:07:26.207Z,32.10
2022-12-01T10:09:16.342Z,30.80
2022-12-01T10:10:55.682Z,29.10
2022-12-01T10:12:35.182Z,34.50
2022-12-01T10:14:20.399Z,32.60
2022-12-01T10:16:14.660Z,29.90
2022-12-01T10:18:19.212Z,29.30
2022-12-01T10:20:02.828Z,31.90
2022-12-01T10:21:43.132Z,35.90
2022-12-01T10:23:46.753Z,30.40
2022-12-01T10:25:27.902Z,33.10
2022-12-01T10:27:11.833Z,31.60
2022-12-01T10:29:21.627Z,31.40
2022-12-01T10:31:07.407Z,30.80
2022-12-01T10:33:00.021Z,32.70
2022-12-01T10:34:43.745Z,33.40
2022-12-01T10:36:15.510Z,34.20
2022-12-01T10:37:56.466Z,33.20
2022-12-01T10:39:40.022Z,33.30
2022-12-01T10:41:18.708Z,34.40
2022-12-01T10:42:51.731Z,35.50
2022-12-01T10:44:23.601Z,36.00
2022-12-01T10:45:58.643Z,32.40
2022-12-01T10:47:32.278Z,31.90
2022-12-01T10:49:12.356Z,30.40
2022-12-01T10:50:47.421Z,37.20
2022-12-01T10:52:38.456Z,36.60
2022-12-01T10:54:12.075Z,37.00
2022-12-01T10:55:47.902Z,37.30
2022-12-01T10:57:22.794Z,38.00
2022-12-01T10:59:02.794Z,38.60
2022-12-01T11:00:59.633Z,32.90
2022-12-01T11:02:33.952Z,40.00
2022-12-01T11:04:28.980Z,39.30
2022-12-01T11:06:08.618Z,40.00
2022-12-01T11:07:47.389Z,40.80
2022-12-01T11:09:26.594Z,41.90
2022-12-01T11:11:01.522Z,42.40
2022-12-01T11:12:34.219Z,39.70
2022-12-01T11:14:53.400Z,45.10
2022-12-01T11:16:47.413Z,43.90
2022-12-01T11:18:37.833Z,45.40
2022-12-01T11:20:39.327Z,48.20
2022-12-01T11:22:32.030Z,44.90
2022-12-01T11:24:33.514Z,44.90
2022-12-01T11:26:17.785Z,49.50
2022-12-01T11:27:57.598Z,55.80
2022-12-01T11:29:38.844Z,51.70
2022-12-01T11:31:12.225Z,53.20
2022-12-01T11:32:54.334Z,56.30
2022-12-01T11:34:31.385Z,53.60
2022-12-01T11:36:03.291Z,56.00
2022-12-01T11:37:54.819Z,57.90
2022-12-01T11:39:38.384Z,56.80
2022-12-01T11:41:34.339Z,59.30
2022-12-01T11:43:07.046Z,54.90
2022-12-01T11:44:51.494Z,58.10
2022-12-01T11:46:46.258Z,61.30
2022-12-01T11:48:32.772Z,65.10
2022-12-01T11:50:26.194Z,54.80
2022-12-01T11:51:59.668Z,60.40
2022-12-01T11:53:43.313Z,54.60
2022-12-01T11:55:16.483Z,53.50
2022-12-01T11:57:10.655Z,60.70
2022-12-01T11:58:55.233Z,58.50
2022-12-01T12:00:51.241Z,55.90
2022-12-01T12:02:51.593Z,50.80
2022-12-01T12:05:06.751Z,51.10
2022-12-01T12:07:19.238Z,53.50
2022-12-01T12:09:09.873Z,52.50
2022-12-01T12:11:29.652Z,51.70
2022-12-01T12:13:17.673Z,55.80
2022-12-01T12:15:21.107Z,55.70
2022-12-01T12:17:11.489Z,51.80
2022-12-01T12:18:58.041Z,53.40
2022-12-01T12:20:48.133Z,51.20
2022-12-01T12:23:01.900Z,52.60
2022-12-01T12:24:59.909Z,55.30
2022-12-01T12:26:59.921Z,54.90
2022-12-01T12:28:45.598Z,54.60
2022-12-01T12:30:35.852Z,47.10
2022-12-01T12:32:28.665Z,53.00
2022-12-01T12:34:36.038Z,58.90
2022-12-01T12:36:47.838Z,51.20
2022-12-01T12:39:16.958Z,54.30
2022-12-01T12:41:24.739Z,59.20
2022-12-01T12:43:39.598Z,53.30
2022-12-01T12:45:44.063Z,54.60
2022-12-01T12:47:47.778Z,53.20
2022-12-01T12:50:10.164Z,54.20
2022-12-01T12:51:56.968Z,53.80
2022-12-01T12:53:49.055Z,54.90
2022-12-01T12:55:49.896Z,54.90
2022-12-01T12:57:28.641Z,56.20
2022-12-01T12:59:11.899Z,57.40
2022-12-01T13:00:53.774Z,56.80
2022-12-01T13:03:00.667Z,58.10
2022-12-01T13:05:24.028Z,55.20
2022-12-01T13:07:16.021Z,57.40
2022-12-01T13:08:57.319Z,52.20
2022-12-01T13:21:23.982Z,54.50
2022-12-01T13:23:01.353Z,58.10
2022-12-01T13:24:33.592Z,55.20
2022-12-01T13:26:10.424Z,47.10
2022-12-01T13:27:52.465Z,54.50
2022-12-01T13:29:27.315Z,58.50
2022-12-01T13:31:16.683Z,60.60
2022-12-01T13:32:58.683Z,55.40
2022-12-01T13:34:48.738Z,60.20
2022-12-01T13:36:45.855Z,61.20
2022-12-01T13:38:22.985Z,54.50
2022-12-01T13:39:56.919Z,60.10
2022-12-01T13:41:34.364Z,54.20
2022-12-01T13:43:21.853Z,53.30
2022-12-01T13:45:02.513Z,59.10
2022-12-01T13:46:43.828Z,61.60
2022-12-01T13:48:42.982Z,62.40
2022-12-01T13:50:53.225Z,57.40
2022-12-01T13:52:32.774Z,58.50
2022-12-01T14:07:40.219Z,51.30
2022-12-01T14:09:40.550Z,56.60
2022-12-01T14:11:21.466Z,52.70
2022-12-01T14:13:04.537Z,56.60
2022-12-01T14:14:55.985Z,51.90
2022-12-01T14:16:58.676Z,53.00
2022-12-01T14:18:39.589Z,53.60
2022-12-01T14:20:14.635Z,52.50
2022-12-01T14:21:49.741Z,54.30
2022-12-01T14:23:33.795Z,51.40
2022-12-01T14:25:21.173Z,47.90
2022-12-01T14:26:53.782Z,50.70
2022-12-01T14:28:59.802Z,50.90
2022-12-01T14:30:46.884Z,52.10
2022-12-01T14:32:21.854Z,57.60
2022-12-01T14:34:10.369Z,56.40
2022-12-01T14:35:46.390Z,53.40
2022-12-01T14:37:26.071Z,54.50
2022-12-01T14:38:58.151Z,51.70
2022-12-01T14:40:30.887Z,55.80
2022-12-01T14:42:59.050Z,54.20
2022-12-01T14:44:33.967Z,54.30
2022-12-01T14:46:21.200Z,54.50
2022-12-01T14:48:06.253Z,53.00
2022-12-01T14:50:18.681Z,56.10
2022-12-01T14:51:58.882Z,58.70
2022-12-01T14:53:40.789Z,56.80
2022-12-01T14:55:26.304Z,52.30
2022-12-01T14:57:07.483Z,54.50
2022-12-01T14:58:53.260Z,49.90
2022-12-01T15:00:25.644Z,58.10
2022-12-01T15:02:10.211Z,53.90
2022-12-01T15:03:48.820Z,53.00
2022-12-01T15:05:27.630Z,50.80
2022-12-01T15:07:00.091Z,54.50
2022-12-01T15:10:38.666Z,53.50
2022-12-01T15:12:29.508Z,55.40
2022-12-01T15:14:01.428Z,55.20
2022-12-01T15:15:33.201Z,54.90
2022-12-01T15:17:09.340Z,54.90
2022-12-01T15:18:41.430Z,54.70
2022-12-01T15:20:41.217Z,55.00
2022-12-01T15:22:18.602Z,57.20
2022-12-01T15:24:01.244Z,60.00
2022-12-01T15:25:38.366Z,58.30
2022-12-01T15:27:30.131Z,62.20
2022-12-01T15:29:31.713Z,59.80
2022-12-01T15:31:12.838Z,56.90
2022-12-01T15:32:45.894Z,61.40
2022-12-01T15:34:53.667Z,63.10
2022-12-01T15:36:25.751Z,66.20
2022-12-01T15:37:58.259Z,61.00
2022-12-01T15:39:45.574Z,67.80
2022-12-01T15:41:28.969Z,59.20
2022-12-01T15:43:21.272Z,62.50
2022-12-01T15:45:05.088Z,64.70
2022-12-01T15:46:36.871Z,60.10
2022-12-01T15:48:18.208Z,53.30
2022-12-01T15:49:50.118Z,60.10
2022-12-01T15:51:27.509Z,64.60
2022-12-01T15:53:29.818Z,60.90
2022-12-01T15:55:04.751Z,63.60
2022-12-01T15:56:41.399Z,58.00
2022-12-01T15:58:25.548Z,65.40
2022-12-01T15:59:57.653Z,63.50
2022-12-01T16:01:32.182Z,61.10
2022-12-01T16:03:04.963Z,60.40
2022-12-01T16:04:37.762Z,64.40
2022-12-01T16:06:12.989Z,59.00
2022-12-01T16:09:57.982Z,59.50
2022-12-01T16:11:30.410Z,62.00
2022-12-01T16:13:43.561Z,61.50
2022-12-01T16:15:22.814Z,63.40
2022-12-01T16:16:55.004Z,59.20
2022-12-01T16:18:34.285Z,67.80
2022-12-01T16:20:38.496Z,54.20
2022-12-01T16:22:10.200Z,64.20
2022-12-01T16:23:42.428Z,61.00
2022-12-01T16:25:29.852Z,62.70
2022-12-01T16:27:04.070Z,61.30
2022-12-01T16:28:36.240Z,63.50
2022-12-01T16:30:23.147Z,63.80
2022-12-01T16:34:18.495Z,64.10
2022-12-01T16:35:55.830Z,60.90
2022-12-01T16:37:28.197Z,57.40
2022-12-01T16:39:00.157Z,62.20
2022-12-01T16:40:32.982Z,62.70
2022-12-01T16:42:05.040Z,60.40
2022-12-01T16:43:36.831Z,58.20
2022-12-01T16:46:57.986Z,56.70
2022-12-01T16:48:32.581Z,55.80
2022-12-01T16:50:04.908Z,57.20
2022-12-01T16:51:54.731Z,53.50
2022-12-01T16:53:28.554Z,56.30
2022-12-01T16:55:00.351Z,52.60
2022-12-01T16:56:32.856Z,50.80
2022-12-01T16:58:05.084Z,53.60
2022-12-01T16:59:37.648Z,53.10
2022-12-01T17:01:09.998Z,38.40
2022-12-01T17:02:42.003Z,52.10
2022-12-01T17:04:14.106Z,49.70
2022-12-01T17:06:07.622Z,44.30
2022-12-01T17:07:39.559Z,48.90
2022-12-01T17:09:11.586Z,48.30
2022-12-01T17:10:47.620Z,47.30
2022-12-01T17:12:19.549Z,47.60
2022-12-01T17:13:51.417Z,46.80
2022-12-01T17:15:23.425Z,47.50
2022-12-01T17:16:55.169Z,46.30
2022-12-01T17:18:27.294Z,42.90
2022-12-01T17:20:36.980Z,45.60
2022-12-01T17:22:09.161Z,47.00
2022-12-01T17:23:41.056Z,46.10
2022-12-01T17:25:14.128Z,43.70
2022-12-01T17:26:46.054Z,47.60
2022-12-01T17:28:18.129Z,48.00
2022-12-01T17:29:50.124Z,49.50
2022-12-01T17:31:44.629Z,47.10
2022-12-01T17:33:17.174Z,45.70
2022-12-01T17:34:49.574Z,45.90
2022-12-01T17:36:22.727Z,48.00
2022-12-01T17:37:54.660Z,49.00
2022-12-01T17:39:27.941Z,43.90
2022-12-01T17:41:23.188Z,48.90
2022-12-01T17:42:55.024Z,46.10
2022-12-01T17:45:15.261Z,43.40
2022-12-01T17:46:48.969Z,46.50
2022-12-01T17:48:21.866Z,41.60
2022-12-01T17:49:54.545Z,47.80
2022-12-01T17:51:26.423Z,48.00
2022-12-01T17:52:58.418Z,49.20
2022-12-01T17:54:30.910Z,50.80
2022-12-01T17:56:14.822Z,45.30
2022-12-01T17:57:46.794Z,46.60
2022-12-01T17:59:18.697Z,47.60
2022-12-01T18:00:52.561Z,41.90
2022-12-01T18:02:24.559Z,42.90
2022-12-01T18:03:57.874Z,48.00
2022-12-01T18:05:29.668Z,38.80
2022-12-01T18:07:01.624Z,46.40
2022-12-01T18:08:36.742Z,48.50
2022-12-01T18:10:09.276Z,47.50
2022-12-01T18:11:41.043Z,46.70
2022-12-01T18:13:12.776Z,46.20
2022-12-01T18:14:44.468Z,46.40
2022-12-01T18:16:26.623Z,46.30
2022-12-01T18:17:58.440Z,48.90
2022-12-01T18:19:30.510Z,49.80
2022-12-01T18:21:06.773Z,36.40
2022-12-01T18:22:38.501Z,43.60
2022-12-01T18:24:10.693Z,46.30
2022-12-01T18:25:42.539Z,47.10
2022-12-01T18:27:14.769Z,48.10
2022-12-01T18:28:46.617Z,47.20
2022-12-01T18:30:18.969Z,43.90
2022-12-01T18:31:53.441Z,46.10
2022-12-01T18:33:25.155Z,41.20
2022-12-01T18:34:57.032Z,44.70
2022-12-01T18:36:30.402Z,42.10
2022-12-01T18:38:02.434Z,41.40
2022-12-01T18:39:34.841Z,44.00
2022-12-01T18:41:07.346Z,45.00
2022-12-01T18:42:41.305Z,44.90
2022-12-01T18:44:13.460Z,39.50
2022-12-01T18:45:45.477Z,47.00
2022-12-01T18:47:17.247Z,48.80
2022-12-01T18:48:53.135Z,43.10
2022-12-01T18:50:25.008Z,45.70
2022-12-01T18:51:58.306Z,49.60
2022-12-01T18:53:30.754Z,46.50
2022-12-01T18:55:02.709Z,37.40
2022-12-01T18:56:35.272Z,44.80
2022-12-01T18:58:07.311Z,37.60
2022-12-01T18:59:39.036Z,45.00
2022-12-01T19:01:23.144Z,45.50
2022-12-01T19:02:54.999Z,44.70
2022-12-01T19:04:26.717Z,41.20
2022-12-01T19:05:59.169Z,46.10
2022-12-01T19:07:31.005Z,44.40
2022-12-01T19:09:06.270Z,49.20
2022-12-01T19:10:38.086Z,43.00
2022-12-01T19:12:09.918Z,45.60
2022-12-01T19:13:41.882Z,44.30
2022-12-01T19:15:13.752Z,41.70
2022-12-01T19:16:46.589Z,44.80
2022-12-01T19:18:18.488Z,43.60
2022-12-01T19:19:50.251Z,42.10
2022-12-01T19:21:22.874Z,47.90
2022-12-01T19:22:54.655Z,52.70
2022-12-01T19:24:26.602Z,53.00
2022-12-01T19:25:59.028Z,47.40
2022-12-01T19:27:31.017Z,53.30
2022-12-01T19:29:04.685Z,48.40
2022-12-01T19:30:37.089Z,53.30
2022-12-01T19:32:09.324Z,47.90
2022-12-01T19:33:41.611Z,48.60
2022-12-01T19:35:13.483Z,46.10
2022-12-01T19:36:45.245Z,45.10
2022-12-01T19:38:17.055Z,44.10
2022-12-01T19:39:48.842Z,41.30
2022-12-01T19:42:56.959Z,44.00
2022-12-01T19:44:28.817Z,40.30
2022-12-01T19:46:09.437Z,37.80
2022-12-01T19:47:41.266Z,41.60
2022-12-01T19:49:14.634Z,41.70
2022-12-01T19:50:46.534Z,40.00
2022-12-01T19:52:18.351Z,40.40
2022-12-01T19:53:51.367Z,32.10
2022-12-01T19:55:23.316Z,39.10
2022-12-01T19:56:55.630Z,37.20
2022-12-01T19:58:27.654Z,35.80
2022-12-01T19:59:59.501Z,36.10
2022-12-01T20:01:31.384Z,41.40
2022-12-01T20:03:04.842Z,35.90
2022-12-01T20:04:40.790Z,38.20
2022-12-01T20:06:29.642Z,35.30
2022-12-01T20:08:02.936Z,40.50
2022-12-01T20:09:35.010Z,41.90
2022-12-01T20:11:07.681Z,37.00
2022-12-01T20:12:39.542Z,42.40
2022-12-01T20:14:11.751Z,45.10
2022-12-01T20:15:44.887Z,41.70
2022-12-01T20:17:17.270Z,40.20
2022-12-01T20:18:51.607Z,31.80
2022-12-01T20:20:23.389Z,50.10
2022-12-01T20:21:55.135Z,46.20
2022-12-01T20:23:26.861Z,45.20
2022-12-01T20:24:59.683Z,36.90
2022-12-01T20:26:36.703Z,44.50
2022-12-01T20:28:09.003Z,35.40
2022-12-01T20:29:40.885Z,45.20
2022-12-01T20:31:19.355Z,46.20
2022-12-01T20:32:51.231Z,45.60
2022-12-01T20:34:32.080Z,44.70
2022-12-01T20:49:40.656Z,52.10
2022-12-01T20:51:14.855Z,52.00
2022-12-01T20:52:46.663Z,50.30
2022-12-01T20:54:27.915Z,48.80
2022-12-01T20:56:10.514Z,52.00
2022-12-01T20:57:42.494Z,51.60
2022-12-01T20:59:14.430Z,51.90
2022-12-01T21:00:46.242Z,54.40
2022-12-01T21:02:18.236Z,52.20
2022-12-01T21:03:51.323Z,52.30
2022-12-01T21:05:27.501Z,48.90
2022-12-01T21:06:59.399Z,37.80
2022-12-01T21:08:32.125Z,52.70
2022-12-01T21:10:05.753Z,54.10
2022-12-01T21:12:09.552Z,56.90
2022-12-01T21:13:44.151Z,49.20
2022-12-01T21:15:29.752Z,56.70
2022-12-01T21:17:54.105Z,50.90
2022-12-01T21:20:01.688Z,52.80
2022-12-01T21:21:40.727Z,48.20
2022-12-01T21:23:17.058Z,46.30
2022-12-01T21:24:53.770Z,52.30
2022-12-01T21:26:26.432Z,41.00
2022-12-01T21:28:05.049Z,54.60
2022-12-01T21:29:44.092Z,51.30
2022-12-01T21:31:16.138Z,48.60
2022-12-01T21:32:54.136Z,53.30
2022-12-01T21:34:34.225Z,47.50
2022-12-01T21:36:19.462Z,47.90
2022-12-01T21:38:00.450Z,46.50
2022-12-01T21:39:35.004Z,52.20
2022-12-01T21:41:29.729Z,43.10
2022-12-01T21:43:35.163Z,49.00
2022-12-01T21:45:29.082Z,43.90
2022-12-01T21:47:19.277Z,43.70
2022-12-01T21:48:55.346Z,48.50
2022-12-01T21:50:27.849Z,48.50
2022-12-01T21:52:00.641Z,48.20
2022-12-01T21:53:39.742Z,46.70
2022-12-01T21:55:14.365Z,46.40
2022-12-01T21:56:49.876Z,58.20
2022-12-01T21:58:34.355Z,49.70
2022-12-01T22:00:33.482Z,48.90
2022-12-01T22:02:48.183Z,48.80
2022-12-01T22:04:24.429Z,42.60
2022-12-01T22:06:28.322Z,51.40
2022-12-01T22:08:00.714Z,50.90